createdAt,value
2022-09-29T00:03:02.222Z,11.40
2022-09-29T00:05:31.029Z,12.00
2022-09-29T00:07:58.194Z,8.68
2022-09-29T00:10:27.631Z,12.65
2022-09-29T00:12:54.509Z,10.98
2022-09-29T00:15:21.486Z,8.27
2022-09-29T00:18:12.294Z,9.52
2022-09-29T00:23:02.931Z,11.35
2022-09-29T00:25:30.524Z,10.70
2022-09-29T00:27:57.671Z,11.52
2022-09-29T00:30:24.773Z,10.07
2022-09-29T00:32:51.648Z,11.63
2022-09-29T00:35:18.652Z,7.13
2022-09-29T00:37:45.768Z,13.98
2022-09-29T00:40:12.934Z,8.20
2022-09-29T00:42:42.641Z,12.43
2022-09-29T00:45:25.202Z,10.25
2022-09-29T00:48:03.728Z,9.85
2022-09-29T00:50:41.042Z,7.15
2022-09-29T00:53:13.931Z,14.02
2022-09-29T00:55:47.316Z,9.18
2022-09-29T00:58:40.061Z,9.43
2022-09-29T01:01:07.693Z,6.05
2022-09-29T01:03:48.426Z,10.82
2022-09-29T01:06:23.654Z,11.15
2022-09-29T01:09:01.950Z,9.00
2022-09-29T01:11:30.307Z,10.05
2022-09-29T01:14:03.917Z,10.35
2022-09-29T01:16:35.334Z,12.73
2022-09-29T01:19:07.768Z,10.25
2022-09-29T01:21:34.723Z,11.27
2022-09-29T01:24:27.935Z,8.68
2022-09-29T01:27:33.268Z,8.23
2022-09-29T01:30:23.411Z,7.85
2022-09-29T01:33:05.395Z,11.68
2022-09-29T01:35:44.234Z,10.90
2022-09-29T01:38:32.870Z,12.13
2022-09-29T01:41:06.671Z,12.88
2022-09-29T01:44:04.137Z,17.63
2022-09-29T01:46:59.181Z,11.23
2022-09-29T01:49:30.850Z,20.55
2022-09-29T01:52:03.123Z,34.55
2022-09-29T01:54:51.255Z,34.67
2022-09-29T01:57:30.066Z,34.72
2022-09-29T02:00:10.355Z,35.22
2022-09-29T02:02:59.213Z,34.75
2022-09-29T02:05:38.154Z,24.70
2022-09-29T02:08:15.285Z,18.77
2022-09-29T02:10:53.768Z,18.50
2022-09-29T02:13:24.257Z,26.08
2022-09-29T02:15:56.452Z,21.83
2022-09-29T02:18:27.873Z,28.10
2022-09-29T02:20:54.867Z,20.35
2022-09-29T02:23:21.749Z,25.02
2022-09-29T02:25:50.562Z,19.85
2022-09-29T02:28:18.139Z,17.42
2022-09-29T02:30:45.853Z,19.33
2022-09-29T02:33:24.575Z,17.42
2022-09-29T02:36:00.399Z,17.35
2022-09-29T02:38:49.193Z,13.80
2022-09-29T02:41:29.471Z,15.70
2022-09-29T02:44:19.082Z,19.30
2022-09-29T02:46:55.893Z,16.75
2022-09-29T02:49:46.922Z,18.52
2022-09-29T02:52:20.638Z,16.83
2022-09-29T02:55:19.519Z,18.60
2022-09-29T02:57:46.321Z,13.20
2022-09-29T03:00:17.923Z,17.27
2022-09-29T03:02:46.053Z,12.23
2022-09-29T03:05:15.891Z,13.20
2022-09-29T03:07:43.466Z,11.75
2022-09-29T03:28:53.313Z,10.85
2022-09-29T03:31:20.456Z,12.25
2022-09-29T03:33:47.235Z,10.65
2022-09-29T03:36:14.151Z,14.68
2022-09-29T03:38:40.954Z,13.25
2022-09-29T03:41:07.995Z,20.67
2022-09-29T03:43:34.834Z,13.60
2022-09-29T03:46:02.092Z,13.23
2022-09-29T03:48:31.421Z,17.63
2022-09-29T03:50:59.119Z,20.08
2022-09-29T03:53:25.956Z,18.70
2022-09-29T03:55:52.989Z,12.52
2022-09-29T03:58:22.497Z,17.02
2022-09-29T04:00:49.955Z,17.00
2022-09-29T04:03:17.354Z,12.75
2022-09-29T04:05:48.700Z,8.52
2022-09-29T04:08:16.835Z,14.52
2022-09-29T04:10:45.927Z,8.63
2022-09-29T04:13:16.504Z,10.65
2022-09-29T04:15:45.991Z,15.02
2022-09-29T04:18:12.901Z,13.30
2022-09-29T04:20:39.867Z,11.77
2022-09-29T04:23:06.906Z,12.60
2022-09-29T04:25:34.342Z,16.80
2022-09-29T04:28:01.505Z,13.27
2022-09-29T04:30:28.325Z,15.80
2022-09-29T04:32:55.182Z,14.98
2022-09-29T04:35:22.050Z,16.00
2022-09-29T04:37:48.791Z,19.67
2022-09-29T04:40:16.030Z,14.38
2022-09-29T04:42:43.106Z,28.98
2022-09-29T04:45:10.381Z,20.13
2022-09-29T04:47:37.271Z,19.80
2022-09-29T04:50:04.206Z,16.90
2022-09-29T04:52:31.093Z,19.92
2022-09-29T04:54:57.939Z,28.05
2022-09-29T04:57:24.907Z,23.35
2022-09-29T04:59:52.065Z,10.65
2022-09-29T05:02:19.648Z,10.32
2022-09-29T05:04:47.769Z,14.35
2022-09-29T05:07:15.197Z,16.70
2022-09-29T05:09:42.036Z,15.75
2022-09-29T05:12:08.963Z,11.18
2022-09-29T05:14:35.790Z,17.63
2022-09-29T05:17:02.736Z,20.55
2022-09-29T05:19:30.444Z,13.00
2022-09-29T05:21:57.294Z,21.17
2022-09-29T05:24:24.467Z,28.65
2022-09-29T05:26:54.897Z,25.40
2022-09-29T05:29:25.073Z,33.75
2022-09-29T05:31:52.646Z,20.15
2022-09-29T05:34:19.752Z,40.30
2022-09-29T05:36:46.593Z,20.95
2022-09-29T05:39:13.657Z,11.07
2022-09-29T05:41:40.437Z,13.98
2022-09-29T05:44:07.227Z,12.82
2022-09-29T05:46:34.110Z,10.80
2022-09-29T05:49:01.414Z,17.00
2022-09-29T05:51:28.269Z,17.15
2022-09-29T05:53:55.578Z,15.32
2022-09-29T05:56:25.141Z,13.02
2022-09-29T05:58:52.815Z,12.35
2022-09-29T06:01:26.780Z,13.77
2022-09-29T06:03:57.105Z,14.93
2022-09-29T06:06:29.265Z,18.52
2022-09-29T06:08:58.206Z,27.52
2022-09-29T06:11:27.934Z,16.55
2022-09-29T06:13:56.000Z,14.75
2022-09-29T06:16:26.230Z,14.00
2022-09-29T06:18:53.740Z,9.57
2022-09-29T06:21:25.782Z,11.85
2022-09-29T06:23:55.340Z,18.38
2022-09-29T06:26:24.467Z,15.75
2022-09-29T06:28:52.918Z,29.67
2022-09-29T06:31:22.907Z,23.58
2022-09-29T06:33:50.506Z,18.95
2022-09-29T06:36:48.152Z,22.80
2022-09-29T06:41:48.785Z,41.40
2022-09-29T06:44:16.222Z,36.78
2022-09-29T06:46:43.143Z,30.58
2022-09-29T06:49:13.698Z,27.85
2022-09-29T06:51:45.804Z,36.78
2022-09-29T06:54:14.897Z,42.72
2022-09-29T06:56:42.726Z,42.67
2022-09-29T06:59:09.841Z,47.15
2022-09-29T07:01:36.717Z,24.08
2022-09-29T07:04:03.654Z,32.03
2022-09-29T07:06:31.252Z,21.65
2022-09-29T07:08:59.359Z,27.83
2022-09-29T07:11:29.170Z,28.00
2022-09-29T07:13:56.132Z,29.55
2022-09-29T07:16:26.372Z,29.67
2022-09-29T07:18:53.354Z,27.73
2022-09-29T07:21:22.224Z,35.22
2022-09-29T07:23:49.889Z,29.00
2022-09-29T07:26:18.249Z,29.50
2022-09-29T07:28:46.170Z,36.38
2022-09-29T07:31:16.276Z,30.00
2022-09-29T07:33:45.013Z,29.38
2022-09-29T07:36:13.349Z,35.38
2022-09-29T07:38:40.357Z,39.55
2022-09-29T07:41:11.297Z,36.78
2022-09-29T07:43:38.995Z,28.42
2022-09-29T07:46:06.978Z,26.55
2022-09-29T07:48:35.277Z,34.22
2022-09-29T07:51:03.824Z,32.47
2022-09-29T07:53:31.546Z,34.65
2022-09-29T07:56:13.450Z,28.48
2022-09-29T07:58:40.928Z,29.10
2022-09-29T08:01:10.907Z,30.02
2022-09-29T08:03:39.169Z,28.83
2022-09-29T08:06:07.849Z,25.13
2022-09-29T08:08:46.354Z,28.58
2022-09-29T08:11:29.829Z,27.40
2022-09-29T08:13:58.417Z,29.13
2022-09-29T08:16:25.495Z,32.03
2022-09-29T08:18:52.323Z,25.08
2022-09-29T08:21:19.240Z,26.90
2022-09-29T08:23:45.979Z,26.23
2022-09-29T08:26:16.486Z,29.85
2022-09-29T08:28:44.699Z,27.45
2022-09-29T08:31:14.262Z,46.38
2022-09-29T08:33:41.540Z,40.97
2022-09-29T08:36:15.052Z,46.05
2022-09-29T08:38:46.058Z,61.00
2022-09-29T08:41:34.168Z,50.25
2022-09-29T08:44:10.313Z,37.78
2022-09-29T08:47:04.065Z,30.10
2022-09-29T08:49:44.118Z,28.23
2022-09-29T08:52:17.412Z,31.20
2022-09-29T08:54:49.218Z,23.25
2022-09-29T08:57:21.594Z,18.95
2022-09-29T08:59:57.726Z,21.05
2022-09-29T09:02:24.973Z,15.45
2022-09-29T09:05:00.733Z,21.65
2022-09-29T09:07:27.453Z,14.07
2022-09-29T09:10:18.270Z,19.52
2022-09-29T09:13:03.181Z,21.48
2022-09-29T09:15:40.395Z,17.95
2022-09-29T09:18:34.884Z,14.30
2022-09-29T09:21:13.943Z,17.33
2022-09-29T09:23:58.250Z,19.85
2022-09-29T09:26:40.157Z,19.23
2022-09-29T09:29:42.949Z,23.13
2022-09-29T09:32:15.482Z,28.73
2022-09-29T09:34:47.350Z,32.65
2022-09-29T09:37:31.997Z,30.85
2022-09-29T09:40:24.327Z,31.80
2022-09-29T09:43:00.126Z,29.52
2022-09-29T09:45:32.472Z,28.40
2022-09-29T09:48:07.221Z,19.13
2022-09-29T09:50:37.577Z,21.50
2022-09-29T09:53:34.567Z,17.50
2022-09-29T09:56:22.927Z,10.40
2022-09-29T09:59:18.179Z,8.50
2022-09-29T10:01:45.936Z,8.32
2022-09-29T10:04:13.743Z,13.05
2022-09-29T10:06:41.533Z,5.78
2022-09-29T10:09:15.273Z,8.77
2022-09-29T10:11:44.427Z,12.18
2022-09-29T10:14:20.361Z,7.70
2022-09-29T10:17:12.529Z,6.65
2022-09-29T10:20:05.829Z,11.45
2022-09-29T10:22:33.873Z,7.68
2022-09-29T10:25:19.320Z,7.60
2022-09-29T10:27:50.777Z,9.60
2022-09-29T10:30:38.027Z,10.77
2022-09-29T10:33:10.458Z,9.77
2022-09-29T10:35:42.173Z,8.85
2022-09-29T10:38:18.595Z,10.15
2022-09-29T10:41:04.819Z,11.55
2022-09-29T10:43:45.218Z,11.70
2022-09-29T10:46:30.739Z,5.53
2022-09-29T10:49:13.551Z,11.40
2022-09-29T10:51:48.389Z,8.45
2022-09-29T10:54:17.396Z,9.48
2022-09-29T10:56:50.520Z,8.18
2022-09-29T10:59:18.135Z,8.63
2022-09-29T11:01:50.564Z,13.02
2022-09-29T11:04:23.461Z,13.50
2022-09-29T11:06:51.293Z,7.20
2022-09-29T11:09:21.210Z,7.90
2022-09-29T11:11:48.275Z,12.63
2022-09-29T11:14:36.821Z,13.18
2022-09-29T11:17:22.295Z,12.70
2022-09-29T11:19:49.733Z,9.15
2022-09-29T11:22:50.874Z,13.15
2022-09-29T11:25:39.043Z,6.93
2022-09-29T11:28:11.989Z,12.52
2022-09-29T11:31:09.627Z,8.63
2022-09-29T11:33:52.751Z,9.95
2022-09-29T11:36:57.604Z,9.68
2022-09-29T11:40:02.900Z,10.68
2022-09-29T11:42:51.244Z,10.02
2022-09-29T11:45:24.095Z,15.23
2022-09-29T11:48:30.498Z,11.32
2022-09-29T11:51:24.553Z,6.90
2022-09-29T11:54:05.292Z,6.35
2022-09-29T11:56:50.063Z,14.27
2022-09-29T11:59:54.742Z,9.02
2022-09-29T12:02:52.207Z,9.68
2022-09-29T12:08:06.633Z,14.18
2022-09-29T12:11:23.658Z,8.68
2022-09-29T12:16:33.526Z,17.27
2022-09-29T12:19:05.344Z,5.72
2022-09-29T12:21:41.019Z,8.82
2022-09-29T12:24:14.807Z,9.87
2022-09-29T12:26:43.585Z,16.38
2022-09-29T12:29:41.559Z,11.48
2022-09-29T12:32:19.524Z,9.30
2022-09-29T12:34:54.984Z,15.75
2022-09-29T12:37:27.345Z,13.38
2022-09-29T12:40:11.341Z,14.40
2022-09-29T12:43:26.346Z,11.43
2022-09-29T12:46:12.002Z,11.35
2022-09-29T12:48:39.522Z,14.10
2022-09-29T12:51:14.062Z,11.57
2022-09-29T12:53:54.665Z,12.07
2022-09-29T12:56:32.364Z,10.50
2022-09-29T12:59:05.552Z,7.78
2022-09-29T13:01:36.852Z,11.57
2022-09-29T13:04:25.788Z,14.50
2022-09-29T13:07:07.972Z,11.55
2022-09-29T13:09:55.698Z,12.95
2022-09-29T13:12:43.579Z,10.85
2022-09-29T13:15:29.768Z,11.18
2022-09-29T13:18:27.257Z,9.23
2022-09-29T13:23:58.279Z,14.50
2022-09-29T13:26:43.348Z,12.05
2022-09-29T13:29:27.528Z,11.77
2022-09-29T13:31:57.432Z,11.18
2022-09-29T13:34:32.149Z,10.75
2022-09-29T13:37:15.717Z,7.70
2022-09-29T13:39:51.595Z,13.68
2022-09-29T13:42:36.783Z,9.95
2022-09-29T13:45:25.797Z,10.38
2022-09-29T13:47:58.658Z,14.43
2022-09-29T13:50:51.378Z,11.15
2022-09-29T13:53:28.384Z,9.63
2022-09-29T13:55:56.601Z,7.20
2022-09-29T13:58:32.314Z,5.93
2022-09-29T14:01:02.776Z,7.33
2022-09-29T14:03:32.629Z,8.48
2022-09-29T14:06:41.506Z,7.85
2022-09-29T14:09:18.365Z,6.03
2022-09-29T14:11:51.700Z,11.55
2022-09-29T14:14:18.721Z,10.30
2022-09-29T14:17:11.937Z,14.50
2022-09-29T14:19:59.200Z,12.27
2022-09-29T14:22:32.686Z,7.47
2022-09-29T14:25:10.923Z,9.40
2022-09-29T14:27:52.225Z,13.38
2022-09-29T14:30:45.769Z,12.25
2022-09-29T14:33:36.586Z,9.25
2022-09-29T14:36:12.298Z,8.05
2022-09-29T14:39:24.562Z,10.77
2022-09-29T14:41:49.319Z,8.25
2022-09-29T14:44:53.599Z,10.88
2022-09-29T14:47:58.229Z,12.85
2022-09-29T14:51:09.550Z,13.05
2022-09-29T14:54:04.626Z,7.40
2022-09-29T14:57:00.390Z,7.00
2022-09-29T14:59:48.189Z,11.45
2022-09-29T15:02:22.454Z,5.95
2022-09-29T15:04:50.505Z,10.35
2022-09-29T15:07:23.209Z,5.65
2022-09-29T15:09:53.489Z,8.98
2022-09-29T15:12:23.898Z,6.95
2022-09-29T15:14:51.189Z,7.72
2022-09-29T15:17:47.450Z,7.53
2022-09-29T15:20:17.476Z,10.40
2022-09-29T15:23:02.464Z,6.88
2022-09-29T15:25:39.699Z,6.47
2022-09-29T15:28:32.719Z,10.98
2022-09-29T15:31:05.875Z,11.35
2022-09-29T15:33:44.035Z,13.10
2022-09-29T15:36:26.700Z,5.68
2022-09-29T15:38:59.266Z,6.82
2022-09-29T15:41:33.522Z,4.88
2022-09-29T15:44:03.680Z,6.05
2022-09-29T15:46:38.612Z,6.05
2022-09-29T15:49:18.358Z,5.93
2022-09-29T15:51:59.924Z,6.95
2022-09-29T15:57:22.668Z,5.95
2022-09-29T15:59:51.741Z,8.50
2022-09-29T16:02:42.316Z,5.57
2022-09-29T16:05:16.017Z,5.38
2022-09-29T16:07:58.462Z,10.32
2022-09-29T16:10:31.877Z,10.32
2022-09-29T16:13:03.418Z,6.28
2022-09-29T16:15:45.323Z,5.30
2022-09-29T16:18:39.008Z,5.47
2022-09-29T16:21:12.718Z,8.52
2022-09-29T16:23:47.944Z,5.43
2022-09-29T16:26:19.157Z,9.90
2022-09-29T16:29:10.720Z,5.78
2022-09-29T16:31:39.778Z,11.07
2022-09-29T16:34:31.454Z,10.10
2022-09-29T16:37:14.988Z,7.47
2022-09-29T16:39:47.390Z,6.68
2022-09-29T16:42:25.686Z,6.30
2022-09-29T16:44:54.558Z,4.95
2022-09-29T16:47:30.281Z,12.25
2022-09-29T16:49:59.047Z,6.47
2022-09-29T16:52:41.367Z,10.30
2022-09-29T16:55:28.148Z,8.60
2022-09-29T16:58:09.966Z,10.85
2022-09-29T17:00:36.813Z,11.23
2022-09-29T17:03:05.779Z,8.63
2022-09-29T17:05:47.739Z,9.77
2022-09-29T17:08:16.610Z,7.35
2022-09-29T17:10:43.436Z,10.88
2022-09-29T17:13:16.015Z,7.75
2022-09-29T17:15:45.682Z,11.00
2022-09-29T17:18:13.690Z,12.77
2022-09-29T17:20:44.167Z,10.23
2022-09-29T17:23:11.878Z,15.60
2022-09-29T17:25:41.416Z,13.23
2022-09-29T17:28:26.467Z,13.07
2022-09-29T17:30:55.683Z,9.85
2022-09-29T17:33:22.638Z,12.43
2022-09-29T17:35:55.849Z,11.25
2022-09-29T17:38:24.175Z,10.32
2022-09-29T17:41:06.767Z,13.82
2022-09-29T17:43:33.627Z,8.15
2022-09-29T17:46:01.266Z,13.80
2022-09-29T17:48:29.635Z,12.40
2022-09-29T17:51:01.968Z,16.38
2022-09-29T17:53:28.951Z,19.60
2022-09-29T17:55:57.539Z,14.10
2022-09-29T17:58:24.858Z,16.48
2022-09-29T18:00:53.881Z,10.07
2022-09-29T18:03:22.151Z,10.45
2022-09-29T18:06:00.142Z,8.35
2022-09-29T18:08:29.671Z,11.95
2022-09-29T18:10:58.902Z,9.88
2022-09-29T18:13:28.496Z,8.93
2022-09-29T18:15:56.993Z,12.90
2022-09-29T18:18:24.107Z,8.30
2022-09-29T18:20:51.515Z,14.52
2022-09-29T18:23:20.838Z,12.65
2022-09-29T18:25:50.566Z,19.23
2022-09-29T18:28:18.742Z,10.40
2022-09-29T18:30:48.111Z,10.95
2022-09-29T18:33:17.089Z,10.65
2022-09-29T18:35:51.152Z,13.70
2022-09-29T18:38:18.086Z,23.98
2022-09-29T18:40:48.954Z,15.10
2022-09-29T18:43:15.750Z,9.73
2022-09-29T18:45:43.689Z,8.82
2022-09-29T18:48:15.578Z,7.70
2022-09-29T18:50:50.928Z,24.58
2022-09-29T18:53:20.082Z,12.18
2022-09-29T18:55:47.743Z,11.05
2022-09-29T18:58:17.145Z,9.07
2022-09-29T19:00:47.187Z,7.22
2022-09-29T19:03:14.166Z,5.82
2022-09-29T19:05:42.815Z,8.05
2022-09-29T19:08:14.278Z,5.47
2022-09-29T19:10:47.566Z,6.22
2022-09-29T19:13:15.724Z,3.63
2022-09-29T19:15:44.118Z,5.90
2022-09-29T19:18:22.617Z,9.57
2022-09-29T19:20:55.698Z,6.15
2022-09-29T19:23:24.212Z,10.95
2022-09-29T19:25:52.806Z,11.55
2022-09-29T19:28:21.417Z,8.90
2022-09-29T19:30:48.959Z,8.32
2022-09-29T19:33:19.795Z,11.77
2022-09-29T19:35:51.846Z,7.78
2022-09-29T19:38:19.917Z,7.47
2022-09-29T19:40:47.999Z,3.88
2022-09-29T19:43:15.648Z,5.97
2022-09-29T19:45:43.974Z,5.75
2022-09-29T19:48:15.374Z,9.73
2022-09-29T19:51:01.226Z,6.85
2022-09-29T19:53:28.659Z,10.30
2022-09-29T19:55:55.864Z,8.90
2022-09-29T19:58:24.056Z,6.90
2022-09-29T20:00:56.527Z,7.07
2022-09-29T20:03:23.697Z,8.13
2022-09-29T20:05:50.815Z,11.52
2022-09-29T20:08:17.936Z,9.65
2022-09-29T20:10:45.042Z,5.53
2022-09-29T20:13:14.949Z,13.38
2022-09-29T20:15:46.132Z,6.18
2022-09-29T20:18:15.160Z,9.82
2022-09-29T20:20:42.952Z,6.85
2022-09-29T20:23:13.072Z,9.70
2022-09-29T20:25:40.147Z,5.95
2022-09-29T20:28:10.634Z,8.30
2022-09-29T20:30:41.415Z,5.22
2022-09-29T20:33:08.434Z,3.60
2022-09-29T20:35:39.165Z,9.95
2022-09-29T20:38:06.524Z,6.53
2022-09-29T20:40:33.367Z,5.55
2022-09-29T20:43:00.146Z,3.88
2022-09-29T20:45:26.959Z,4.20
2022-09-29T20:47:54.063Z,4.53
2022-09-29T20:50:20.858Z,7.65
2022-09-29T20:52:49.434Z,6.35
2022-09-29T20:55:16.247Z,6.05
2022-09-29T20:57:46.305Z,7.45
2022-09-29T21:00:14.457Z,6.03
2022-09-29T21:02:41.444Z,4.47
2022-09-29T21:05:08.472Z,3.08
2022-09-29T21:07:38.520Z,5.15
2022-09-29T21:10:06.497Z,5.75
2022-09-29T21:12:37.158Z,4.75
2022-09-29T21:15:04.676Z,4.63
2022-09-29T21:17:31.536Z,6.60
2022-09-29T21:19:58.327Z,9.13
2022-09-29T21:22:27.748Z,5.38
2022-09-29T21:24:55.489Z,4.68
2022-09-29T21:27:22.397Z,9.88
2022-09-29T21:29:49.618Z,6.57
2022-09-29T21:32:16.477Z,11.50
2022-09-29T21:34:43.215Z,7.28
2022-09-29T21:37:10.267Z,5.47
2022-09-29T21:39:37.177Z,4.35
2022-09-29T21:42:04.502Z,6.90
2022-09-29T21:44:31.307Z,3.67
2022-09-29T21:46:58.210Z,4.88
2022-09-29T21:49:25.119Z,7.05
2022-09-29T21:51:51.897Z,8.35
2022-09-29T21:54:27.398Z,7.57
2022-09-29T21:56:54.224Z,7.20
2022-09-29T21:59:22.918Z,8.07
2022-09-29T22:01:52.307Z,7.55
2022-09-29T22:04:20.487Z,6.10
2022-09-29T22:06:47.641Z,4.05
2022-09-29T22:09:20.792Z,11.88
2022-09-29T22:11:50.142Z,6.55
2022-09-29T22:14:18.111Z,5.88
2022-09-29T22:16:45.049Z,7.88
2022-09-29T22:19:28.463Z,6.22
2022-09-29T22:21:56.249Z,8.35
2022-09-29T22:24:27.889Z,3.85
2022-09-29T22:26:55.115Z,8.10
2022-09-29T22:29:22.070Z,6.13
2022-09-29T22:31:48.971Z,4.57
2022-09-29T22:34:15.880Z,4.93
2022-09-29T22:36:42.798Z,4.22
2022-09-29T22:39:10.728Z,4.70
2022-09-29T22:41:41.249Z,6.60
2022-09-29T22:44:08.837Z,5.10
2022-09-29T22:46:35.936Z,6.95
2022-09-29T22:49:03.076Z,3.60
2022-09-29T22:51:30.496Z,5.82
2022-09-29T22:53:57.425Z,9.25
2022-09-29T22:56:28.921Z,2.97
2022-09-29T22:59:00.151Z,5.47
2022-09-29T23:01:27.287Z,3.60
2022-09-29T23:03:54.210Z,9.45
2022-09-29T23:06:21.196Z,3.20
2022-09-29T23:08:48.093Z,8.57
2022-09-29T23:11:17.986Z,6.72
2022-09-29T23:13:48.077Z,5.13
2022-09-29T23:16:16.885Z,6.45
2022-09-29T23:18:45.795Z,10.73
2022-09-29T23:21:15.382Z,8.43
2022-09-29T23:23:45.626Z,8.98
2022-09-29T23:26:16.527Z,9.40
2022-09-29T23:28:43.584Z,6.38
2022-09-29T23:31:11.314Z,15.73
2022-09-29T23:33:39.241Z,8.95
2022-09-29T23:36:11.531Z,11.02
2022-09-29T23:39:03.230Z,6.57
2022-09-29T23:41:31.318Z,5.80
2022-09-29T23:44:03.297Z,6.28
2022-09-29T23:46:31.766Z,11.98
2022-09-29T23:49:00.404Z,17.73
2022-09-29T23:51:28.513Z,6.22
2022-09-29T23:53:55.383Z,6.15
2022-09-29T23:56:22.276Z,5.60
2022-09-29T23:58:49.293Z,9.32
